Time;durP1;ratioP1;P1;durP2;ratioP2;P2;SDS_P1;SDS_P2;PMS_P1;PMS_P2;Temp;Humidity;BMP_temperature;BMP_pressure;BME280_temperature;BME280_humidity;BME280_pressure;Samples;Min_cycle;Max_cycle;Signal;HPM_P1;HPM_P2
2021/03/24 00:00:36;;;;;;;19.73;14.75;;;;;;;6.62;69.47;101506.72;5053213;28;20029;-67
2021/03/24 00:03:01;;;;;;;20.73;14.35;;;;;;;6.62;69.47;101512.84;5053337;28;20466;-67
2021/03/24 00:05:33;;;;;;;22.50;15.48;;;;;;;6.61;69.72;101511.06;5052832;28;20060;-67
2021/03/24 00:07:59;;;;;;;20.63;14.02;;;;;;;6.62;70.10;101506.72;5051871;28;20040;-67
2021/03/24 00:10:26;;;;;;;21.88;14.65;;;;;;;6.65;69.54;101512.03;5053183;28;20412;-67
2021/03/24 00:12:52;;;;;;;18.35;13.55;;;;;;;6.64;69.53;101510.25;5052943;28;20083;-67
2021/03/24 00:15:17;;;;;;;21.33;14.35;;;;;;;6.56;69.64;101513.56;5052594;28;20037;-67
2021/03/24 00:17:43;;;;;;;21.17;15.15;;;;;;;6.52;69.75;101513.44;5053121;28;20028;-67
2021/03/24 00:20:11;;;;;;;20.65;15.90;;;;;;;6.54;69.64;101514.38;5052883;28;20041;-67
2021/03/24 00:22:36;;;;;;;17.83;14.00;;;;;;;6.54;69.57;101515.25;5052951;28;20159;-67
2021/03/24 00:25:03;;;;;;;21.10;13.38;;;;;;;6.53;69.42;101512.63;5052478;28;20501;-67
2021/03/24 00:27:28;;;;;;;21.33;13.73;;;;;;;6.51;69.86;101509.94;5052708;28;20499;-67
2021/03/24 00:29:53;;;;;;;19.15;13.55;;;;;;;6.54;69.60;101512.63;5052489;28;20048;-67
2021/03/24 00:32:19;;;;;;;24.50;16.02;;;;;;;6.56;69.80;101510.94;5052468;28;20044;-67
2021/03/24 00:34:44;;;;;;;22.45;16.05;;;;;;;6.59;69.95;101515.38;5051298;28;20037;-67
2021/03/24 00:37:11;;;;;;;20.90;16.15;;;;;;;6.57;69.41;101512.72;5052331;28;20028;-67
2021/03/24 00:39:36;;;;;;;20.52;13.63;;;;;;;6.48;69.78;101507.25;5052535;28;20060;-67
2021/03/24 00:42:03;;;;;;;17.77;14.07;;;;;;;6.47;69.57;101502.84;5052494;28;20156;-67
2021/03/24 00:44:28;;;;;;;20.42;15.25;;;;;;;6.48;69.71;101509.88;5052267;28;20041;-67
2021/03/24 00:46:56;;;;;;;22.75;16.25;;;;;;;6.55;69.82;101519.69;5052110;28;20033;-67
2021/03/24 00:49:26;;;;;;;20.52;15.90;;;;;;;6.61;69.51;101513.69;5044294;28;20033;-67
2021/03/24 00:51:52;;;;;;;21.17;15.20;;;;;;;6.54;69.67;101515.25;5051995;28;20029;-67
2021/03/24 00:54:18;;;;;;;19.42;14.32;;;;;;;6.54;69.71;101517.88;5051880;28;20438;-67
2021/03/24 00:56:43;;;;;;;26.35;17.98;;;;;;;6.55;69.62;101516.16;5051966;28;20396;-67
2021/03/24 00:59:08;;;;;;;21.65;15.88;;;;;;;6.61;69.89;101512.81;5051903;28;20033;-67
2021/03/24 01:01:34;;;;;;;23.52;15.35;;;;;;;6.65;69.49;101514.66;5052113;28;20036;-67
2021/03/24 01:03:59;;;;;;;24.23;16.98;;;;;;;6.64;70.23;101515.50;5051939;28;20044;-67
2021/03/24 01:06:24;;;;;;;20.85;15.80;;;;;;;6.67;69.83;101505.09;5051695;28;20060;-67
2021/03/24 01:08:53;;;;;;;20.90;16.13;;;;;;;6.69;69.90;101509.53;5051979;28;20128;-67
2021/03/24 01:11:18;;;;;;;23.52;16.65;;;;;;;6.66;70.28;101503.31;5051885;28;20036;-66
2021/03/24 01:13:44;;;;;;;23.98;17.08;;;;;;;6.66;70.16;101498.09;5051668;28;20033;-67
2021/03/24 01:16:09;;;;;;;20.85;15.40;;;;;;;6.66;70.00;101498.97;5051766;28;20033;-67
2021/03/24 01:18:34;;;;;;;19.60;14.88;;;;;;;6.69;70.31;101496.41;5051839;28;20033;-67
2021/03/24 01:21:00;;;;;;;21.65;15.40;;;;;;;6.67;70.20;101499.84;5051722;28;20040;-67
2021/03/24 01:23:25;;;;;;;21.38;14.93;;;;;;;6.69;70.21;101501.66;5051850;28;20064;-67
2021/03/24 01:25:50;;;;;;;25.10;17.70;;;;;;;6.67;69.67;101497.22;5051295;28;20036;-67
2021/03/24 01:28:20;;;;;;;23.88;16.67;;;;;;;6.61;69.96;101492.72;5051615;28;20453;-67
2021/03/24 01:30:46;;;;;;;21.70;15.73;;;;;;;6.53;70.14;101492.50;5048772;28;20060;-67
2021/03/24 01:33:12;;;;;;;20.23;16.35;;;;;;;6.48;70.02;101482.75;5051446;28;20071;-67
2021/03/24 01:35:39;;;;;;;23.23;17.35;;;;;;;6.40;70.00;101487.81;5051165;28;20033;-67
2021/03/24 01:38:06;;;;;;;22.27;16.75;;;;;;;6.43;70.52;101485.25;5051428;28;20384;-67
2021/03/24 01:40:34;;;;;;;23.00;17.02;;;;;;;6.43;70.10;101489.63;5051379;28;20443;-67
2021/03/24 01:43:05;;;;;;;23.42;17.52;;;;;;;6.48;69.97;101486.25;5051147;28;20037;-67
2021/03/24 01:45:30;;;;;;;22.60;17.45;;;;;;;6.50;69.63;101487.19;5051123;28;20041;-67
2021/03/24 01:47:57;;;;;;;20.88;14.50;;;;;;;6.43;69.81;101481.75;5051334;28;20033;-67
2021/03/24 01:50:27;;;;;;;24.67;17.23;;;;;;;6.28;70.76;101482.22;5043100;28;20159;-67
2021/03/24 01:52:53;;;;;;;23.77;16.73;;;;;;;6.32;70.41;101484.09;5051279;28;20052;-67
2021/03/24 01:55:19;;;;;;;21.80;16.23;;;;;;;6.40;70.34;101489.53;5050783;28;20032;-67
2021/03/24 01:57:45;;;;;;;23.00;16.58;;;;;;;6.46;70.33;101493.19;5051294;28;20063;-67
2021/03/24 02:00:17;;;;;;;23.27;17.05;;;;;;;6.48;70.24;101491.50;5051111;28;20051;-67
2021/03/24 02:02:43;;;;;;;24.30;17.90;;;;;;;6.54;69.98;101491.66;5051144;28;20033;-67
2021/03/24 02:05:09;;;;;;;22.67;16.48;;;;;;;6.60;70.05;101483.03;5050749;28;20072;-67
2021/03/24 02:07:55;;;;;;;25.45;18.48;;;;;;;6.65;69.77;101483.16;5051159;28;20047;-67
2021/03/24 02:10:32;;;;;;;24.55;18.30;;;;;;;6.64;69.22;101481.41;5051019;28;20037;-67
2021/03/24 02:13:11;;;;;;;24.27;17.15;;;;;;;6.56;69.60;101479.47;5051317;28;20037;-67
2021/03/24 02:15:44;;;;;;;25.88;17.52;;;;;;;6.58;69.65;101477.78;5050824;28;20040;-67
2021/03/24 02:18:12;;;;;;;23.02;16.65;;;;;;;6.61;70.04;101478.72;5050999;28;20047;-67
2021/03/24 02:20:47;;;;;;;23.92;18.08;;;;;;;6.65;69.53;101472.69;5051056;28;20064;-67
2021/03/24 02:23:26;;;;;;;28.20;19.70;;;;;;;6.68;69.54;101468.41;5050909;28;20045;-67
2021/03/24 02:25:56;;;;;;;25.13;18.02;;;;;;;6.69;69.59;101469.28;5050744;28;20036;-67
2021/03/24 02:28:22;;;;;;;25.52;18.38;;;;;;;6.67;69.68;101478.84;5042778;28;20077;-67
2021/03/24 02:30:48;;;;;;;25.40;17.95;;;;;;;6.68;69.67;101475.38;5050800;28;20101;-67
2021/03/24 02:33:19;;;;;;;25.67;18.48;;;;;;;6.67;69.65;101474.50;5050827;28;20044;-67
2021/03/24 02:35:48;;;;;;;27.30;18.98;;;;;;;6.64;69.71;101477.03;5049351;28;20549;-67
2021/03/24 02:38:15;;;;;;;26.95;18.30;;;;;;;6.59;69.42;101466.44;5050836;28;20048;-67
2021/03/24 02:40:43;;;;;;;28.20;19.90;;;;;;;6.55;70.03;101469.84;5050774;28;20099;-67
2021/03/24 02:43:09;;;;;;;28.65;20.27;;;;;;;6.54;70.02;101472.41;5050551;28;20079;-67
2021/03/24 02:45:39;;;;;;;25.38;18.35;;;;;;;6.49;70.27;101476.66;5050393;28;20042;-67
2021/03/24 02:48:09;;;;;;;22.45;16.77;;;;;;;6.45;70.14;101475.69;5050748;28;20075;-67
2021/03/24 02:50:37;;;;;;;24.70;17.80;;;;;;;6.45;70.19;101478.31;5050686;28;20095;-67
2021/03/24 02:53:03;;;;;;;27.52;19.35;;;;;;;6.47;70.45;101470.47;5050680;28;20056;-67
2021/03/24 02:55:31;;;;;;;30.40;21.60;;;;;;;6.50;70.14;101481.06;5050438;28;20597;-67
2021/03/24 02:57:57;;;;;;;28.50;20.33;;;;;;;6.49;70.65;101485.41;5050616;28;20061;-67
2021/03/24 03:00:25;;;;;;;28.15;20.08;;;;;;;6.54;70.15;101481.16;5042404;28;20099;-67
2021/03/24 03:03:03;;;;;;;29.90;22.02;;;;;;;6.52;70.02;101472.41;5050841;28;20063;-67
2021/03/24 03:05:32;;;;;;;30.63;21.50;;;;;;;6.54;70.59;101478.53;5042917;28;20033;-67
2021/03/24 03:08:21;;;;;;;27.83;19.42;;;;;;;6.57;70.43;101482.97;5050469;28;20091;-67
2021/03/24 03:11:01;;;;;;;25.65;18.52;;;;;;;6.61;69.59;101482.22;5066116;28;20043;-67
2021/03/24 03:13:35;;;;;;;24.83;18.30;;;;;;;6.65;70.13;101478.81;5042865;28;20411;-67
2021/03/24 03:16:09;;;;;;;29.65;18.58;;;;;;;6.68;69.88;101475.38;5051652;28;20033;-67
2021/03/24 03:18:41;;;;;;;24.40;17.90;;;;;;;6.64;69.24;101478.78;5054070;28;20462;-67
2021/03/24 03:21:14;;;;;;;29.73;18.45;;;;;;;6.55;69.80;101476.81;5054047;28;20487;-67
2021/03/24 03:23:39;;;;;;;;;;;;;;;6.49;70.31;101474.03;5054349;28;20573;-67
2021/03/24 03:26:22;;;;;;;29.85;18.90;;;;;;;6.56;69.89;101470.72;5053630;28;19912;-67
2021/03/24 03:28:54;;;;;;;26.33;18.17;;;;;;;6.55;69.46;101475.09;5053910;28;20123;-67
2021/03/24 03:31:24;;;;;;;26.87;18.37;;;;;;;6.53;69.70;101471.53;5053860;28;20037;-67
2021/03/24 03:33:52;;;;;;;27.58;19.30;;;;;;;6.51;69.53;101472.34;5050733;28;20091;-67
2021/03/24 03:36:19;;;;;;;26.42;18.02;;;;;;;6.51;70.45;101473.22;5053472;28;20036;-67
2021/03/24 03:38:47;;;;;;;27.45;18.92;;;;;;;6.53;69.23;101468.03;5053612;28;20487;-67
2021/03/24 03:41:14;;;;;;;28.05;20.42;;;;;;;6.48;69.53;101470.53;5053593;28;20044;-67
2021/03/24 03:43:41;;;;;;;24.05;17.83;;;;;;;6.53;69.26;101473.28;5053329;28;20091;-67
2021/03/24 03:46:08;;;;;;;25.75;17.90;;;;;;;6.50;69.04;101467.97;5051410;28;20067;-67
2021/03/24 03:48:34;;;;;;;24.10;16.88;;;;;;;6.52;68.84;101463.59;5053023;28;20049;-67
2021/03/24 03:51:05;;;;;;;27.20;18.52;;;;;;;6.52;69.00;101467.16;5057700;28;20048;-67
2021/03/24 03:53:42;;;;;;;31.08;20.80;;;;;;;6.53;69.02;101471.53;5053281;28;20029;-67
2021/03/24 03:56:20;;;;;;;31.13;19.90;;;;;;;6.50;68.52;101466.22;5053177;28;20040;-67
2021/03/24 03:58:59;;;;;;;28.83;19.13;;;;;;;6.45;68.78;101462.59;5053205;28;20047;-67
2021/03/24 04:01:32;;;;;;;27.77;18.98;;;;;;;6.41;69.01;101475.56;5045312;28;20033;-67
2021/03/24 04:04:02;;;;;;;27.88;18.42;;;;;;;6.40;69.13;101464.19;5053162;28;20033;-67
2021/03/24 04:06:36;;;;;;;28.92;18.95;;;;;;;6.40;69.13;101463.31;5052797;28;20104;-67
2021/03/24 04:09:02;;;;;;;31.17;21.38;;;;;;;6.46;69.00;101461.72;5053183;28;20484;-67
2021/03/24 04:11:32;;;;;;;36.17;21.48;;;;;;;6.48;68.88;101452.16;5053092;28;20116;-67
2021/03/24 04:14:01;;;;;;;31.75;20.67;;;;;;;6.50;68.77;101455.72;5052837;28;20041;-67
2021/03/24 04:16:27;;;;;;;31.50;21.70;;;;;;;6.50;68.69;101450.47;5052628;28;20410;-67
2021/03/24 04:18:57;;;;;;;35.67;23.10;;;;;;;6.50;68.77;101455.72;5052936;28;20044;-67
2021/03/24 04:21:26;;;;;;;32.65;22.42;;;;;;;6.54;68.35;101452.31;5044781;28;20494;-67
2021/03/24 04:23:59;;;;;;;33.45;22.38;;;;;;;6.52;68.51;101459.28;5052851;28;20079;-67
2021/03/24 04:26:32;;;;;;;34.95;21.35;;;;;;;6.48;68.32;101460.03;5044273;28;20036;-67
2021/03/24 04:29:04;;;;;;;33.30;20.10;;;;;;;6.42;68.57;101461.59;5052052;28;20481;-67
2021/03/24 04:31:30;;;;;;;33.50;22.00;;;;;;;6.44;68.40;101460.78;5052606;28;20040;-67
2021/03/24 04:33:56;;;;;;;37.53;23.52;;;;;;;6.38;68.51;101455.41;5052617;28;20479;-69
2021/03/24 04:36:31;;;;;;;35.80;21.63;;;;;;;6.35;68.85;101466.69;5049506;28;20028;-69
2021/03/24 04:39:06;;;;;;;35.80;24.60;;;;;;;6.37;68.67;101469.38;5052023;28;20039;-69
2021/03/24 04:41:37;;;;;;;38.17;24.27;;;;;;;6.42;68.45;101466.84;5045414;28;20044;-69
2021/03/24 04:44:17;;;;;;;38.03;24.00;;;;;;;6.43;68.78;101459.03;5052066;28;20151;-69
2021/03/24 04:46:47;;;;;;;38.45;22.90;;;;;;;6.47;68.48;101466.13;5052109;28;20170;-69
2021/03/24 04:49:17;;;;;;;35.15;23.60;;;;;;;6.52;68.52;101464.53;5052303;28;20045;-69
2021/03/24 04:51:43;;;;;;;33.45;23.63;;;;;;;6.53;68.63;101471.53;5052410;28;20048;-69
2021/03/24 04:54:24;;;;;;;32.67;20.42;;;;;;;6.53;68.34;101468.91;5052205;28;20035;-69
2021/03/24 04:56:54;;;;;;;37.00;22.80;;;;;;;6.50;68.74;101468.84;5052332;28;20035;-69
2021/03/24 04:59:23;;;;;;;35.15;22.70;;;;;;;6.50;68.80;101468.84;5052045;28;20495;-69
2021/03/24 05:01:53;;;;;;;32.80;20.98;;;;;;;6.55;68.23;101471.59;5052122;28;20044;-69
2021/03/24 05:04:22;;;;;;;34.63;21.73;;;;;;;6.54;68.46;101477.66;5052045;28;20040;-69
2021/03/24 05:06:52;;;;;;;34.25;23.20;;;;;;;6.59;68.45;101476.03;5051623;28;20035;-69
2021/03/24 05:09:17;;;;;;;37.20;25.33;;;;;;;6.55;68.29;101474.22;5052290;28;20041;-69
2021/03/24 05:12:12;;;;;;;36.78;22.98;;;;;;;6.54;67.88;101483.78;5051973;28;20037;-67
2021/03/24 05:14:44;;;;;;;35.97;23.15;;;;;;;6.57;68.10;101473.38;5036737;28;20072;-67
2021/03/24 05:17:18;;;;;;;39.17;24.10;;;;;;;6.56;68.12;101481.22;5051551;28;20028;-67
2021/03/24 05:19:46;;;;;;;35.83;23.02;;;;;;;6.57;67.99;101482.97;5051678;28;20085;-67
2021/03/24 05:22:33;;;;;;;32.13;20.92;;;;;;;6.59;67.93;101482.16;5051245;28;20037;-67
2021/03/24 05:25:22;;;;;;;41.28;24.10;;;;;;;6.58;67.80;101485.66;5057199;28;20384;-67
2021/03/24 05:28:14;;;;;;;36.05;24.33;;;;;;;6.51;68.27;101483.72;5053900;28;20120;-67
2021/03/24 05:30:50;;;;;;;36.72;23.00;;;;;;;6.53;68.38;101476.78;5041054;28;20041;-67
2021/03/24 05:33:22;;;;;;;38.33;23.13;;;;;;;6.54;68.07;101481.16;5041470;28;20099;-67
2021/03/24 05:35:56;;;;;;;40.35;25.70;;;;;;;6.51;68.29;101483.72;5041559;28;20113;-67
2021/03/24 05:38:35;;;;;;;36.20;24.05;;;;;;;6.56;68.00;101484.72;5050917;28;20033;-67
2021/03/24 05:41:19;;;;;;;36.22;23.90;;;;;;;6.55;67.91;101496.06;5051355;28;20036;-67
2021/03/24 05:43:58;;;;;;;36.70;24.05;;;;;;;6.59;67.66;101492.66;5051298;28;20043;-67
2021/03/24 05:46:51;;;;;;;36.30;22.50;;;;;;;6.61;68.13;101490.09;5042900;28;20051;-67
2021/03/24 05:49:28;;;;;;;;;;;;;;;6.56;67.66;101495.22;5051665;28;20048;-67
2021/03/24 05:52:06;;;;;;;39.08;23.73;;;;;;;6.61;67.61;101499.69;5051288;28;20404;-67
2021/03/24 05:55:08;;;;;;;40.30;23.80;;;;;;;6.60;68.06;101501.41;5044094;28;20037;-67
2021/03/24 05:57:52;;;;;;;37.72;24.00;;;;;;;6.61;67.81;101491.84;5043617;28;20060;-67
2021/03/24 06:00:45;;;;;;;39.60;24.58;;;;;;;6.61;67.53;101492.72;5055488;28;20461;-67
2021/03/24 06:03:30;;;;;;;43.20;23.83;;;;;;;6.65;67.92;101497.16;5050505;28;20059;-66
2021/03/24 06:06:43;;;;;;;40.10;25.65;;;;;;;6.66;67.41;101492.84;5055229;28;20120;-67
2021/03/24 06:09:20;;;;;;;39.40;21.65;;;;;;;6.66;68.24;101487.59;5041802;28;20056;-67
2021/03/24 06:11:53;;;;;;;42.65;25.67;;;;;;;6.67;67.94;101500.72;5051170;28;20032;-67
2021/03/24 06:14:43;;;;;;;37.50;23.25;;;;;;;6.67;67.92;101491.97;5050964;28;20063;-67
2021/03/24 06:17:39;;;;;;;42.83;23.92;;;;;;;6.71;67.72;101491.22;5050739;28;20040;-67
2021/03/24 06:20:22;;;;;;;40.13;25.52;;;;;;;6.84;67.25;101492.38;5050943;28;20041;-67
2021/03/24 06:23:09;;;;;;;44.08;26.60;;;;;;;6.81;67.97;101487.94;5051042;28;20025;-67
2021/03/24 06:25:46;;;;;;;48.03;29.63;;;;;;;6.85;68.99;101491.53;5044036;28;20037;-67
2021/03/24 06:28:30;;;;;;;58.40;35.15;;;;;;;6.96;69.35;101490.94;5050962;28;20386;-66
2021/03/24 06:31:35;;;;;;;51.67;31.70;;;;;;;7.01;67.79;101491.06;5050937;28;20068;-67
2021/03/24 06:34:24;;;;;;;51.40;29.80;;;;;;;7.10;67.92;101490.38;5049610;28;20067;-67
2021/03/24 06:37:08;;;;;;;55.22;30.63;;;;;;;7.18;67.48;101499.34;5056630;28;20083;-67
2021/03/24 06:40:01;;;;;;;49.15;30.50;;;;;;;7.15;67.20;101497.53;5048644;28;20075;-67
2021/03/24 06:42:46;;;;;;;53.10;30.70;;;;;;;7.16;67.42;101498.41;5052957;28;20060;-67
2021/03/24 06:45:29;;;;;;;54.05;33.28;;;;;;;7.17;68.24;101498.44;5051159;28;20047;-68
2021/03/24 06:48:26;;;;;;;50.10;30.42;;;;;;;7.30;67.96;101496.97;5057570;28;20043;-68
2021/03/24 06:51:24;;;;;;;43.47;28.23;;;;;;;7.42;66.42;101488.50;5047699;28;20059;-68
2021/03/24 06:54:27;;;;;;;44.20;27.58;;;;;;;7.46;65.77;101495.56;5045458;28;20025;-68
2021/03/24 06:57:13;;;;;;;45.42;29.75;;;;;;;7.34;66.04;101496.22;5050173;28;20063;-68
2021/03/24 07:00:08;;;;;;;41.83;26.58;;;;;;;7.46;66.48;101496.47;5048692;28;20449;-68
2021/03/24 07:02:52;;;;;;;47.80;29.00;;;;;;;7.60;66.00;101493.28;5047651;28;20384;-68
2021/03/24 07:05:48;;;;;;;49.03;29.67;;;;;;;7.66;65.16;101490.75;5053889;28;20115;-68
2021/03/24 07:08:25;;;;;;;59.03;32.22;;;;;;;7.67;66.50;101489.91;5054346;28;20051;-68
2021/03/24 07:10:59;;;;;;;42.58;27.60;;;;;;;7.75;65.63;101497.94;5054421;28;20561;-68
2021/03/24 07:13:40;;;;;;;43.40;27.33;;;;;;;7.76;64.93;101494.47;5041495;28;20155;-68
2021/03/24 07:16:28;;;;;;;45.83;29.83;;;;;;;7.90;65.00;101503.53;5051406;28;20481;-68
2021/03/24 07:19:11;;;;;;;45.63;29.77;;;;;;;7.92;64.58;101503.56;5054127;28;20082;-68
2021/03/24 07:22:13;;;;;;;46.58;29.75;;;;;;;8.03;63.70;101500.28;5047794;28;20040;-68
2021/03/24 07:25:02;;;;;;;47.05;27.95;;;;;;;8.00;64.38;101507.22;5042279;28;20056;-68
2021/03/24 07:27:39;;;;;;;43.70;28.83;;;;;;;7.99;63.83;101518.59;5046216;28;20083;-68
2021/03/24 07:30:31;;;;;;;44.88;29.90;;;;;;;7.98;64.16;101519.44;5053745;28;20037;-68
2021/03/24 07:33:06;;;;;;;46.30;29.15;;;;;;;7.91;64.22;101510.53;5053791;28;20036;-68
2021/03/24 07:36:03;;;;;;;50.70;30.27;;;;;;;7.91;64.07;101521.06;5046476;28;20051;-68
2021/03/24 07:38:58;;;;;;;44.80;29.83;;;;;;;7.90;64.14;101521.91;5045904;28;20045;-68
2021/03/24 07:42:01;;;;;;;44.80;28.70;;;;;;;7.92;64.12;101528.09;5041475;28;20033;-68
2021/03/24 07:44:56;;;;;;;49.40;30.95;;;;;;;8.00;63.92;101533.53;5045697;28;20033;-68
2021/03/24 07:47:46;;;;;;;45.60;29.67;;;;;;;8.11;63.75;101531.97;5053114;28;20029;-68
2021/03/24 07:50:12;;;;;;;46.20;29.55;;;;;;;8.23;64.21;101533.97;5053558;28;20029;-68
2021/03/24 07:52:59;;;;;;;48.90;30.48;;;;;;;8.33;63.60;101531.56;5053413;28;20526;-68
2021/03/24 07:55:39;;;;;;;47.50;30.88;;;;;;;8.32;63.74;101535.03;5045133;28;20044;-68
2021/03/24 07:58:20;;;;;;;49.30;31.98;;;;;;;8.41;63.36;101541.34;5053680;28;20025;-68
2021/03/24 08:01:07;;;;;;;45.80;30.65;;;;;;;8.50;62.57;101536.28;5053380;28;20060;-68
2021/03/24 08:03:51;;;;;;;47.80;29.98;;;;;;;8.57;62.34;101535.53;5046300;28;20056;-68
2021/03/24 08:06:26;;;;;;;45.22;30.45;;;;;;;8.63;62.49;101547.91;5052922;28;20028;-68
2021/03/24 08:09:16;;;;;;;47.30;29.63;;;;;;;8.71;62.35;101544.53;5053084;28;20033;-68
2021/03/24 08:12:01;;;;;;;47.90;32.28;;;;;;;8.80;61.87;101542.94;5047462;28;20037;-68
2021/03/24 08:14:45;;;;;;;44.85;30.08;;;;;;;8.91;61.50;101546.66;5045202;28;20041;-68
2021/03/24 08:17:38;;;;;;;50.22;32.75;;;;;;;8.86;61.08;101550.97;5052819;28;20491;-68
2021/03/24 08:20:14;;;;;;;;;;;;;;;8.78;62.11;101541.16;5053240;28;20484;-68
2021/03/24 08:23:08;;;;;;;51.45;30.00;;;;;;;8.93;61.07;101539.66;5052758;28;19936;-68
2021/03/24 08:26:04;;;;;;;47.38;31.48;;;;;;;9.00;61.92;101541.53;5045647;28;20037;-69
2021/03/24 08:28:36;;;;;;;48.40;31.85;;;;;;;9.18;60.81;101544.44;5044827;28;20045;-68
2021/03/24 08:31:42;;;;;;;46.03;30.77;;;;;;;9.06;60.47;101549.50;5057172;28;20517;-68
2021/03/24 08:34:07;;;;;;;45.60;31.08;;;;;;;8.99;61.45;101540.66;5055163;28;20041;-68
2021/03/24 08:36:54;;;;;;;56.13;32.10;;;;;;;9.29;61.22;101538.47;5052356;28;20041;-68
2021/03/24 08:39:44;;;;;;;50.65;30.38;;;;;;;9.52;60.09;101539.69;5052485;28;20090;-68
2021/03/24 08:42:36;;;;;;;44.20;31.90;;;;;;;9.47;60.49;101538.75;5052635;28;20033;-68
2021/03/24 08:45:18;;;;;;;45.83;32.85;;;;;;;9.56;60.14;101538.88;5052367;28;20037;-68
2021/03/24 08:47:48;;;;;;;47.25;32.50;;;;;;;9.61;59.07;101525.75;5052413;28;20514;-68
2021/03/24 08:50:19;;;;;;;47.80;33.72;;;;;;;9.80;59.23;101542.72;5052055;28;20499;-68
2021/03/24 08:53:10;;;;;;;46.53;32.85;;;;;;;9.94;59.23;101527.94;5052029;28;20040;-68
2021/03/24 08:55:59;;;;;;;50.40;33.28;;;;;;;10.08;58.61;101525.47;5045199;28;20043;-68
2021/03/24 08:58:38;;;;;;;49.20;34.58;;;;;;;10.35;57.97;101532.88;5043292;28;20518;-68
2021/03/24 09:01:18;;;;;;;48.35;32.63;;;;;;;10.31;57.62;101531.03;5051604;28;20035;-68
2021/03/24 09:03:52;;;;;;;52.83;34.35;;;;;;;10.22;58.18;101523.00;5050536;28;20129;-68
2021/03/24 09:06:39;;;;;;;47.42;33.83;;;;;;;10.24;58.04;101527.44;5051571;28;20040;-68
2021/03/24 09:09:33;;;;;;;48.83;35.78;;;;;;;10.35;57.44;101527.59;5048740;28;20487;-68
2021/03/24 09:12:16;;;;;;;56.40;35.92;;;;;;;10.56;56.92;101516.38;5051993;28;20032;-68
2021/03/24 09:14:53;;;;;;;;;;;;;;;10.83;56.92;101521.00;5051668;28;20045;-68
2021/03/24 09:17:51;;;;;;;50.08;33.97;;;;;;;10.87;56.14;101514.88;5056885;28;20012;-68
2021/03/24 09:20:50;;;;;;;55.83;37.10;;;;;;;10.76;56.13;101519.16;5054149;28;20505;-68
2021/03/24 09:23:27;;;;;;;59.10;40.42;;;;;;;10.93;55.65;101514.91;5053980;28;20043;-68
2021/03/24 09:26:30;;;;;;;67.32;42.33;;;;;;;11.30;55.18;101507.25;5053698;28;20029;-68
2021/03/24 09:29:33;;;;;;;51.05;36.35;;;;;;;11.54;54.46;101517.09;5056717;28;20439;-68
2021/03/24 09:32:27;;;;;;;52.15;35.47;;;;;;;11.38;54.93;101502.91;5055355;28;20043;-68
2021/03/24 09:35:03;;;;;;;52.60;35.60;;;;;;;11.50;54.43;101503.84;5054221;28;20120;-68
2021/03/24 09:37:39;;;;;;;51.47;35.17;;;;;;;11.29;54.05;101505.50;5050738;28;20029;-68
2021/03/24 09:40:11;;;;;;;47.83;35.58;;;;;;;11.37;54.52;101497.59;5058504;28;20024;-68
2021/03/24 09:42:46;;;;;;;52.88;36.13;;;;;;;11.38;54.21;101507.31;5052934;28;20064;-68
2021/03/24 09:45:14;;;;;;;46.83;34.33;;;;;;;11.53;54.35;101495.94;5051742;28;20055;-68
2021/03/24 09:48:04;;;;;;;44.85;33.90;;;;;;;11.76;53.76;101491.66;5055769;28;20549;-68
2021/03/24 09:51:02;;;;;;;56.65;37.40;;;;;;;11.92;53.48;101490.00;5044000;28;20045;-69
2021/03/24 09:53:30;;;;;;;51.60;37.83;;;;;;;11.96;52.87;101483.81;5043672;28;20047;-69
2021/03/24 09:55:55;;;;;;;54.67;40.05;;;;;;;11.82;53.59;101481.09;5051050;28;20029;-68
2021/03/24 09:58:24;;;;;;;49.08;36.58;;;;;;;11.93;54.06;101485.56;5051010;28;20504;-69
2021/03/24 10:00:59;;;;;;;52.97;38.40;;;;;;;11.92;52.96;101476.75;5051116;28;20044;-68
2021/03/24 10:03:33;;;;;;;54.72;38.22;;;;;;;11.80;52.83;101485.50;5041778;28;20052;-68
2021/03/24 10:06:01;;;;;;;47.72;35.00;;;;;;;11.81;53.07;101471.38;5050818;28;20525;-68
2021/03/24 10:08:39;;;;;;;51.25;35.53;;;;;;;11.55;52.76;101473.03;5051023;28;20080;-68
2021/03/24 10:11:09;;;;;;;53.88;37.67;;;;;;;11.21;54.43;101472.84;5051076;28;20033;-68
2021/03/24 10:13:59;;;;;;;50.50;36.08;;;;;;;11.25;55.25;101469.34;5050957;28;20049;-68
2021/03/24 10:16:34;;;;;;;65.78;45.50;;;;;;;11.26;54.57;101465.81;5042904;28;20048;-68
2021/03/24 10:19:05;;;;;;;55.28;39.33;;;;;;;11.60;54.82;101460.72;5051088;28;20044;-68
2021/03/24 10:21:48;;;;;;;51.17;38.13;;;;;;;11.79;52.94;101454.63;5051017;28;20108;-68
2021/03/24 10:24:21;;;;;;;51.13;36.92;;;;;;;11.85;52.01;101456.41;5051099;28;20068;-68
2021/03/24 10:26:53;;;;;;;46.92;35.63;;;;;;;11.59;50.25;101451.03;5054817;28;20076;-68
2021/03/24 10:29:23;;;;;;;52.65;36.35;;;;;;;11.53;49.61;101458.94;5055040;28;20053;-68
2021/03/24 10:31:53;;;;;;;53.30;37.58;;;;;;;11.52;50.11;101454.50;5054933;28;20075;-68
2021/03/24 10:34:46;;;;;;;51.08;37.60;;;;;;;11.81;49.73;101452.84;5053668;28;20467;-68
2021/03/24 10:37:28;;;;;;;48.38;35.75;;;;;;;12.20;49.06;101451.25;5054667;28;20079;-68
2021/03/24 10:40:00;;;;;;;53.22;37.13;;;;;;;12.36;49.51;101445.97;5054836;28;20049;-69
2021/03/24 10:42:32;;;;;;;46.75;35.70;;;;;;;12.56;48.84;101446.88;5046669;28;20039;-68
2021/03/24 10:45:06;;;;;;;51.08;38.80;;;;;;;12.64;48.11;101439.81;5054769;28;20037;-68
2021/03/24 10:47:37;;;;;;;49.90;38.78;;;;;;;12.87;48.29;101439.81;5047513;28;20037;-68
2021/03/24 10:50:20;;;;;;;54.03;40.28;;;;;;;13.04;47.70;101446.84;5054764;28;20037;-68
2021/03/24 10:52:57;;;;;;;53.53;40.08;;;;;;;13.17;47.46;101448.56;5054237;28;20041;-68
2021/03/24 10:55:24;;;;;;;56.38;39.65;;;;;;;13.13;47.72;101441.53;5054171;28;20048;-68
2021/03/24 10:58:05;;;;;;;49.28;38.90;;;;;;;13.32;47.00;101434.44;5054432;28;20044;-68
2021/03/24 11:00:43;;;;;;;55.25;40.05;;;;;;;13.43;47.54;101435.28;5047076;28;20068;-69
2021/03/24 11:03:18;;;;;;;48.90;38.03;;;;;;;13.19;45.55;101430.91;5054261;28;20037;-69
2021/03/24 11:06:04;;;;;;;51.42;39.00;;;;;;;12.62;46.86;101428.31;5053432;28;20578;-69
2021/03/24 11:08:56;;;;;;;54.55;40.03;;;;;;;12.58;48.56;101429.22;5049313;28;20049;-69
2021/03/24 11:11:25;;;;;;;52.08;38.00;;;;;;;12.50;48.30;101431.88;5053951;28;20045;-69
2021/03/24 11:13:59;;;;;;;53.80;39.30;;;;;;;12.52;49.09;101433.63;5048137;28;20029;-69
2021/03/24 11:16:38;;;;;;;49.55;38.15;;;;;;;12.39;49.19;101433.63;5045663;28;20033;-69
2021/03/24 11:19:24;;;;;;;58.28;39.55;;;;;;;12.15;49.42;101430.94;5054116;28;20044;-69
2021/03/24 11:22:14;;;;;;;55.67;39.72;;;;;;;11.88;50.24;101421.19;5052276;28;20043;-69
2021/03/24 11:24:48;;;;;;;52.90;38.15;;;;;;;11.99;50.54;101416.81;5047797;28;20044;-69
2021/03/24 11:27:37;;;;;;;54.10;38.53;;;;;;;12.10;49.87;101412.41;5052359;28;20086;-68
2021/03/24 11:30:22;;;;;;;53.22;39.25;;;;;;;12.36;49.47;101407.13;5053637;28;20120;-69
2021/03/24 11:33:03;;;;;;;55.50;41.70;;;;;;;12.42;50.15;101416.88;5053802;28;20052;-68
2021/03/24 11:35:55;;;;;;;54.45;40.03;;;;;;;12.58;49.35;101405.41;5045988;28;20033;-69
2021/03/24 11:38:47;;;;;;;52.73;38.87;;;;;;;12.83;49.14;101403.59;5053412;28;20031;-68
2021/03/24 11:41:34;;;;;;;52.03;39.40;;;;;;;13.00;47.84;101394.75;5053640;28;20041;-69
2021/03/24 11:44:12;;;;;;;54.45;39.75;;;;;;;13.42;46.40;101396.41;5050118;28;20507;-68
2021/03/24 11:46:43;;;;;;;49.35;37.75;;;;;;;13.44;45.67;101393.72;5041803;28;20111;-68
2021/03/24 11:49:23;;;;;;;53.47;39.15;;;;;;;13.41;47.28;101399.06;5048343;28;20556;-69
2021/03/24 11:52:11;;;;;;;56.75;39.88;;;;;;;13.41;46.01;101389.31;5053331;28;20075;-69
2021/03/24 11:54:48;;;;;;;50.38;38.45;;;;;;;13.34;46.70;101385.81;5046780;28;20483;-68
2021/03/24 11:57:13;;;;;;;56.33;40.55;;;;;;;13.10;46.94;101389.41;5052966;28;20052;-69
2021/03/24 12:00:24;;;;;;;52.78;40.95;;;;;;;13.07;47.45;101384.13;5053287;28;20040;-69